Time;durP1;ratioP1;P1;durP2;ratioP2;P2;SDS_P1;SDS_P2;PMS_P1;PMS_P2;Temp;Humidity;BMP_temperature;BMP_pressure;BME280_temperature;BME280_humidity;BME280_pressure;Samples;Min_cycle;Max_cycle;Signal;HPM_P1;HPM_P2
2023/06/13 00:00:11;;;;;;;9.90;3.90;;;;;;;;;;5068131;28;20041;-60
2023/06/13 00:02:38;;;;;;;5.73;3.80;;;;;;;;;;5068486;28;20044;-59
2023/06/13 00:05:05;;;;;;;12.43;4.10;;;;;;;;;;5067960;28;20041;-60
2023/06/13 00:07:32;;;;;;;8.27;4.00;;;;;;;;;;5068670;28;20040;-59
2023/06/13 00:09:59;;;;;;;10.20;4.00;;;;;;;;;;5068447;28;20044;-59
2023/06/13 00:12:25;;;;;;;6.47;3.80;;;;;;;;;;5068502;28;20053;-59
2023/06/13 00:14:51;;;;;;;9.63;3.80;;;;;;;;;;5067127;28;20047;-59
2023/06/13 00:17:18;;;;;;;9.57;4.37;;;;;;;;;;5067941;28;20052;-60
2023/06/13 00:19:45;;;;;;;8.20;3.63;;;;;;;;;;5068101;28;20048;-59
2023/06/13 00:22:16;;;;;;;8.57;4.00;;;;;;;;;;5068538;28;20045;-60
2023/06/13 00:24:42;;;;;;;9.30;4.53;;;;;;;;;;5068022;28;20052;-60
2023/06/13 00:27:08;;;;;;;9.13;4.07;;;;;;;;;;5068527;28;20051;-60
2023/06/13 00:29:34;;;;;;;7.53;4.03;;;;;;;;;;5068758;28;20051;-59
2023/06/13 00:32:00;;;;;;;7.37;4.60;;;;;;;;;;5071542;28;20513;-59
2023/06/13 00:34:26;;;;;;;8.17;3.70;;;;;;;;;;5071582;28;20052;-59
2023/06/13 00:36:53;;;;;;;11.03;4.47;;;;;;;;;;5072014;28;20044;-59
2023/06/13 00:39:20;;;;;;;7.20;4.37;;;;;;;;;;5071583;28;20490;-59
2023/06/13 00:41:46;;;;;;;5.80;4.10;;;;;;;;;;5070886;28;20060;-59
2023/06/13 00:44:12;;;;;;;8.17;4.07;;;;;;;;;;5071280;28;20045;-59
2023/06/13 00:46:39;;;;;;;6.03;4.10;;;;;;;;;;5071149;28;20160;-59
2023/06/13 00:49:06;;;;;;;8.80;4.60;;;;;;;;;;5071728;28;20044;-60
2023/06/13 00:51:35;;;;;;;7.93;4.17;;;;;;;;;;5071697;28;20076;-59
2023/06/13 00:54:02;;;;;;;6.63;3.83;;;;;;;;;;5071377;28;20045;-59
2023/06/13 00:56:29;;;;;;;8.30;4.63;;;;;;;;;;5071366;28;20478;-60
2023/06/13 00:59:01;;;;;;;9.47;4.57;;;;;;;;;;5070928;28;20063;-60
2023/06/13 01:01:27;;;;;;;8.27;4.80;;;;;;;;;;5071348;28;20049;-59
2023/06/13 01:03:55;;;;;;;11.43;5.17;;;;;;;;;;5071194;28;20047;-60
2023/06/13 01:06:24;;;;;;;6.07;4.20;;;;;;;;;;5071202;28;20094;-59
2023/06/13 01:08:51;;;;;;;8.43;4.77;;;;;;;;;;5070401;28;20429;-59
2023/06/13 01:11:29;;;;;;;9.40;4.27;;;;;;;;;;5070789;28;20127;-59
2023/06/13 01:14:01;;;;;;;9.40;4.70;;;;;;;;;;5071161;28;20044;-60
2023/06/13 01:16:33;;;;;;;9.47;4.57;;;;;;;;;;5070830;28;20045;-59
2023/06/13 01:18:59;;;;;;;7.17;4.60;;;;;;;;;;5071130;28;20044;-59
2023/06/13 01:21:27;;;;;;;12.17;5.00;;;;;;;;;;5070587;28;20283;-59
2023/06/13 01:23:53;;;;;;;6.40;4.20;;;;;;;;;;5070725;28;20057;-60
2023/06/13 01:26:38;;;;;;;8.40;4.60;;;;;;;;;;5070613;28;20044;-60
2023/06/13 01:29:05;;;;;;;8.83;4.87;;;;;;;;;;5070381;28;20044;-59
2023/06/13 01:31:32;;;;;;;6.60;4.50;;;;;;;;;;5069468;28;20041;-59
2023/06/13 01:33:59;;;;;;;7.30;4.67;;;;;;;;;;5050533;28;20060;-59
2023/06/13 01:36:25;;;;;;;9.60;4.47;;;;;;;;;;5049999;28;20048;-60
2023/06/13 01:38:52;;;;;;;10.67;5.20;;;;;;;;;;5050540;28;20453;-60
2023/06/13 01:41:18;;;;;;;8.73;5.30;;;;;;;;;;5049463;28;20119;-60
2023/06/13 01:43:44;;;;;;;9.57;4.83;;;;;;;;;;5050160;28;20088;-60
2023/06/13 01:46:30;;;;;;;15.67;5.50;;;;;;;;;;5050272;28;20056;-60
2023/06/13 01:49:16;;;;;;;11.07;5.07;;;;;;;;;;5069632;28;20046;-60
2023/06/13 01:51:48;;;;;;;12.10;5.10;;;;;;;;;;5070284;28;20049;-60
2023/06/13 01:54:16;;;;;;;10.13;4.67;;;;;;;;;;5070283;28;20040;-59
2023/06/13 01:56:43;;;;;;;9.00;5.13;;;;;;;;;;5069683;28;20051;-60
2023/06/13 01:59:11;;;;;;;10.13;5.33;;;;;;;;;;5069358;28;20090;-59
2023/06/13 02:01:38;;;;;;;6.07;4.30;;;;;;;;;;5068543;28;20426;-60
2023/06/13 02:04:04;;;;;;;8.47;4.63;;;;;;;;;;5069834;28;20414;-59
2023/06/13 02:06:32;;;;;;;11.03;5.30;;;;;;;;;;5070009;28;20057;-60
2023/06/13 02:08:58;;;;;;;9.30;5.10;;;;;;;;;;5069849;28;20040;-59
2023/06/13 02:11:25;;;;;;;9.67;5.60;;;;;;;;;;5069903;28;20418;-59
2023/06/13 02:13:52;;;;;;;12.60;5.30;;;;;;;;;;5069683;28;20521;-59
2023/06/13 02:16:18;;;;;;;10.37;5.40;;;;;;;;;;5068238;28;20219;-60
2023/06/13 02:18:47;;;;;;;9.13;5.33;;;;;;;;;;5069362;28;20501;-59
2023/06/13 02:21:13;;;;;;;7.87;4.63;;;;;;;;;;5069745;28;20055;-59
2023/06/13 02:23:39;;;;;;;8.57;4.97;;;;;;;;;;5069491;28;20448;-59
2023/06/13 02:26:09;;;;;;;10.80;6.00;;;;;;;;;;5069631;28;20051;-60
2023/06/13 02:28:35;;;;;;;10.10;5.40;;;;;;;;;;5069054;28;20066;-59
2023/06/13 02:31:01;;;;;;;7.43;5.43;;;;;;;;;;5069382;28;20486;-60
2023/06/13 02:33:30;;;;;;;10.57;5.43;;;;;;;;;;5068799;28;20052;-60
2023/06/13 02:35:56;;;;;;;15.87;6.03;;;;;;;;;;5069193;28;20793;-60
2023/06/13 02:38:22;;;;;;;12.30;5.37;;;;;;;;;;5069203;28;20559;-59
2023/06/13 02:40:48;;;;;;;8.37;5.50;;;;;;;;;;5069410;28;20043;-59
2023/06/13 02:43:14;;;;;;;10.37;5.60;;;;;;;;;;5051472;28;20048;-59
2023/06/13 02:45:40;;;;;;;9.57;5.20;;;;;;;;;;5068663;28;20117;-60
2023/06/13 02:48:06;;;;;;;10.60;5.57;;;;;;;;;;5068516;28;20502;-60
2023/06/13 02:50:32;;;;;;;10.50;5.37;;;;;;;;;;5069377;28;20155;-59
2023/06/13 02:52:59;;;;;;;8.10;5.37;;;;;;;;;;5068873;28;20115;-59
2023/06/13 02:55:25;;;;;;;11.00;5.43;;;;;;;;;;5069237;28;20123;-59
2023/06/13 02:57:51;;;;;;;7.43;4.83;;;;;;;;;;5069254;28;20040;-60
2023/06/13 03:00:17;;;;;;;9.57;5.43;;;;;;;;;;5068022;28;20056;-60
2023/06/13 03:02:46;;;;;;;12.10;5.73;;;;;;;;;;5069162;28;20109;-60
2023/06/13 03:05:15;;;;;;;12.37;5.93;;;;;;;;;;5069198;28;20056;-60
2023/06/13 03:07:48;;;;;;;8.83;5.50;;;;;;;;;;5069243;28;20052;-60
2023/06/13 03:10:15;;;;;;;7.65;5.57;;;;;;;;;;5069100;28;20574;-60
2023/06/13 03:12:42;;;;;;;10.37;5.50;;;;;;;;;;5068826;28;20150;-60
2023/06/13 03:15:08;;;;;;;10.30;5.87;;;;;;;;;;5068408;28;20518;-60
2023/06/13 03:17:34;;;;;;;9.50;5.60;;;;;;;;;;5069035;28;20045;-60
2023/06/13 03:20:00;;;;;;;9.40;5.87;;;;;;;;;;5068937;28;20045;-60
2023/06/13 03:22:26;;;;;;;10.53;5.43;;;;;;;;;;5068682;28;20076;-59
2023/06/13 03:24:52;;;;;;;9.00;5.80;;;;;;;;;;5068562;28;20384;-59
2023/06/13 03:27:19;;;;;;;9.90;5.23;;;;;;;;;;5068437;28;20694;-60
2023/06/13 03:29:45;;;;;;;6.87;4.90;;;;;;;;;;5067995;28;20086;-60
2023/06/13 03:32:11;;;;;;;9.37;5.50;;;;;;;;;;5067468;28;20109;-59
2023/06/13 03:34:38;;;;;;;6.80;4.90;;;;;;;;;;5068801;28;20418;-59
2023/06/13 03:37:08;;;;;;;10.17;5.70;;;;;;;;;;5068519;28;20131;-60
2023/06/13 03:39:34;;;;;;;10.17;6.03;;;;;;;;;;5068530;28;20072;-60
2023/06/13 03:42:00;;;;;;;11.00;5.63;;;;;;;;;;5068080;28;20033;-60
2023/06/13 03:44:29;;;;;;;13.33;6.03;;;;;;;;;;5067502;28;21404;-60
2023/06/13 03:46:56;;;;;;;9.03;6.43;;;;;;;;;;5067530;28;20041;-60
2023/06/13 03:49:23;;;;;;;15.27;6.30;;;;;;;;;;5068291;28;20044;-60
2023/06/13 03:51:49;;;;;;;14.07;6.07;;;;;;;;;;5067507;28;20076;-59
2023/06/13 03:54:15;;;;;;;12.77;6.13;;;;;;;;;;5067972;28;20040;-59
2023/06/13 03:56:41;;;;;;;14.47;6.53;;;;;;;;;;5068328;28;20049;-60
2023/06/13 03:59:07;;;;;;;12.60;5.83;;;;;;;;;;5067884;28;20449;-59
2023/06/13 04:01:33;;;;;;;13.17;5.43;;;;;;;;;;5067275;28;20130;-59
2023/06/13 04:03:59;;;;;;;13.53;5.67;;;;;;;;;;5068127;28;20607;-59
2023/06/13 04:06:28;;;;;;;13.30;6.20;;;;;;;;;;5071787;28;20037;-60
2023/06/13 04:08:54;;;;;;;8.53;4.90;;;;;;;;;;5071161;28;20137;-60
2023/06/13 04:11:21;;;;;;;11.67;5.67;;;;;;;;;;5071686;28;20470;-60
2023/06/13 04:13:47;;;;;;;8.27;4.83;;;;;;;;;;5071840;28;20045;-60
2023/06/13 04:16:13;;;;;;;9.03;5.50;;;;;;;;;;5071645;28;20429;-60
2023/06/13 04:18:39;;;;;;;8.80;5.07;;;;;;;;;;5071890;28;20053;-60
2023/06/13 04:21:06;;;;;;;12.80;4.83;;;;;;;;;;5071147;28;20054;-60
2023/06/13 04:23:33;;;;;;;9.97;5.53;;;;;;;;;;5071789;28;20131;-60
2023/06/13 04:26:02;;;;;;;7.77;5.33;;;;;;;;;;5071499;28;20055;-60
2023/06/13 04:28:29;;;;;;;7.23;5.37;;;;;;;;;;5071729;28;20049;-60
2023/06/13 04:30:56;;;;;;;7.20;4.93;;;;;;;;;;5071052;28;20110;-60
2023/06/13 04:33:24;;;;;;;10.50;5.90;;;;;;;;;;5071282;28;20048;-60
2023/06/13 04:35:50;;;;;;;8.00;5.57;;;;;;;;;;5070674;28;20044;-60
2023/06/13 04:38:21;;;;;;;9.93;5.03;;;;;;;;;;5071197;28;20048;-60
2023/06/13 04:40:48;;;;;;;10.97;5.20;;;;;;;;;;5071419;28;20083;-60
2023/06/13 04:43:17;;;;;;;9.73;4.80;;;;;;;;;;5069512;28;20063;-60
2023/06/13 04:45:43;;;;;;;6.77;4.90;;;;;;;;;;5071438;28;20414;-60
2023/06/13 04:48:10;;;;;;;9.57;5.20;;;;;;;;;;5071364;28;20044;-60
2023/06/13 04:50:39;;;;;;;12.07;5.10;;;;;;;;;;5070560;28;20072;-60
2023/06/13 04:53:07;;;;;;;8.80;5.43;;;;;;;;;;5071093;28;20056;-60
2023/06/13 04:55:37;;;;;;;11.80;5.17;;;;;;;;;;5070911;28;20052;-60
2023/06/13 04:58:03;;;;;;;13.07;5.20;;;;;;;;;;5071020;28;20094;-60
2023/06/13 05:00:29;;;;;;;8.20;5.00;;;;;;;;;;5070778;28;20514;-60
2023/06/13 05:02:56;;;;;;;14.00;4.73;;;;;;;;;;5071291;28;20048;-59
2023/06/13 05:05:23;;;;;;;8.50;5.27;;;;;;;;;;5070883;28;20579;-60
2023/06/13 05:07:55;;;;;;;6.47;4.50;;;;;;;;;;5070899;28;20055;-60
2023/06/13 05:10:22;;;;;;;9.90;4.60;;;;;;;;;;5070963;28;20070;-59
2023/06/13 05:12:48;;;;;;;7.60;5.10;;;;;;;;;;5070790;28;20040;-60
2023/06/13 05:15:16;;;;;;;11.33;4.80;;;;;;;;;;5069990;28;20139;-60
2023/06/13 05:17:45;;;;;;;9.67;5.00;;;;;;;;;;5070559;28;20064;-60
2023/06/13 05:20:12;;;;;;;10.70;4.33;;;;;;;;;;5068968;28;20044;-60
2023/06/13 05:22:39;;;;;;;7.47;4.50;;;;;;;;;;5070466;28;20054;-60
2023/06/13 05:25:08;;;;;;;9.77;5.10;;;;;;;;;;5070013;28;20052;-60
2023/06/13 05:27:34;;;;;;;9.63;4.30;;;;;;;;;;5070716;28;20048;-60
2023/06/13 05:30:00;;;;;;;7.50;4.20;;;;;;;;;;5068761;28;20090;-60
2023/06/13 05:32:26;;;;;;;6.93;4.30;;;;;;;;;;5069821;28;20406;-61
2023/06/13 05:34:52;;;;;;;6.43;4.10;;;;;;;;;;5069308;28;20048;-60
2023/06/13 05:37:19;;;;;;;11.20;4.80;;;;;;;;;;5069184;28;20086;-60
2023/06/13 05:39:45;;;;;;;6.47;4.07;;;;;;;;;;5069870;28;20044;-60
2023/06/13 05:42:11;;;;;;;9.07;3.93;;;;;;;;;;5069816;28;20127;-60
2023/06/13 05:44:37;;;;;;;7.07;4.63;;;;;;;;;;5069336;28;20053;-60
2023/06/13 05:47:03;;;;;;;13.37;4.33;;;;;;;;;;5069157;28;20041;-60
2023/06/13 05:49:29;;;;;;;7.47;4.03;;;;;;;;;;5069990;28;20048;-60
2023/06/13 05:51:55;;;;;;;10.10;3.93;;;;;;;;;;5068555;28;20050;-60
2023/06/13 05:54:21;;;;;;;6.97;4.30;;;;;;;;;;5070068;28;20056;-59
2023/06/13 05:56:47;;;;;;;7.00;3.97;;;;;;;;;;5069859;28;20142;-60
2023/06/13 05:59:14;;;;;;;8.27;4.17;;;;;;;;;;5069359;28;20618;-60
2023/06/13 06:01:42;;;;;;;9.40;4.30;;;;;;;;;;5070158;28;20123;-60
2023/06/13 06:04:08;;;;;;;6.93;3.90;;;;;;;;;;5069805;28;20084;-60
2023/06/13 06:06:34;;;;;;;7.80;4.20;;;;;;;;;;5068712;28;20494;-59
2023/06/13 06:09:00;;;;;;;12.03;3.93;;;;;;;;;;5064757;28;20052;-60
2023/06/13 06:11:27;;;;;;;10.60;3.90;;;;;;;;;;5069708;28;20044;-60
2023/06/13 06:13:53;;;;;;;6.57;3.10;;;;;;;;;;5069525;28;20414;-59
2023/06/13 06:16:19;;;;;;;6.60;3.40;;;;;;;;;;5069063;28;20052;-60
2023/06/13 06:18:45;;;;;;;5.47;3.40;;;;;;;;;;5069656;28;20048;-60
2023/06/13 06:21:11;;;;;;;10.80;3.83;;;;;;;;;;5068159;28;20087;-60
2023/06/13 06:23:39;;;;;;;13.70;3.40;;;;;;;;;;5068312;28;20041;-60
2023/06/13 06:26:05;;;;;;;11.43;3.73;;;;;;;;;;5069068;28;20415;-60
2023/06/13 06:28:31;;;;;;;7.17;3.47;;;;;;;;;;5067563;28;20044;-60
2023/06/13 06:30:58;;;;;;;6.37;3.83;;;;;;;;;;5068390;28;20045;-61
2023/06/13 06:33:24;;;;;;;15.00;3.77;;;;;;;;;;5068846;28;20143;-61
2023/06/13 06:35:50;;;;;;;6.90;3.37;;;;;;;;;;5068876;28;20044;-61
2023/06/13 06:38:16;;;;;;;6.97;3.80;;;;;;;;;;5068146;28;20048;-61
2023/06/13 06:40:41;;;;;;;6.43;3.80;;;;;;;;;;5068760;28;20525;-61
2023/06/13 06:43:07;;;;;;;5.40;3.17;;;;;;;;;;5068836;28;21087;-61
2023/06/13 06:45:33;;;;;;;7.30;3.93;;;;;;;;;;5064144;28;20040;-61
2023/06/13 06:48:01;;;;;;;6.30;3.80;;;;;;;;;;5048005;28;20053;-61
2023/06/13 06:50:27;;;;;;;7.77;3.90;;;;;;;;;;5061703;28;20057;-61
2023/06/13 06:52:53;;;;;;;10.43;4.40;;;;;;;;;;5061435;28;20124;-61
2023/06/13 06:55:19;;;;;;;11.03;3.70;;;;;;;;;;5065554;28;20097;-61
2023/06/13 06:57:45;;;;;;;8.57;3.77;;;;;;;;;;5068311;28;20045;-61
2023/06/13 07:00:14;;;;;;;10.73;3.27;;;;;;;;;;5067903;28;20051;-61
2023/06/13 07:02:41;;;;;;;7.10;3.63;;;;;;;;;;5067767;28;20048;-61
2023/06/13 07:05:07;;;;;;;7.80;3.03;;;;;;;;;;5067169;28;20036;-61
2023/06/13 07:07:33;;;;;;;8.13;3.40;;;;;;;;;;5067708;28;20049;-61
2023/06/13 07:09:59;;;;;;;6.60;3.47;;;;;;;;;;5068552;28;20058;-61
2023/06/13 07:12:25;;;;;;;7.57;3.60;;;;;;;;;;5067489;28;20406;-61
2023/06/13 07:14:51;;;;;;;9.67;4.33;;;;;;;;;;5068114;28;20033;-61
2023/06/13 07:17:17;;;;;;;9.63;3.70;;;;;;;;;;5068837;28;20471;-61
2023/06/13 07:19:43;;;;;;;7.53;3.60;;;;;;;;;;5063845;28;20136;-61
2023/06/13 07:22:09;;;;;;;6.27;3.40;;;;;;;;;;5066054;28;20044;-61
2023/06/13 07:24:35;;;;;;;6.07;3.00;;;;;;;;;;5066989;28;20063;-61
2023/06/13 07:27:01;;;;;;;7.17;3.73;;;;;;;;;;5066814;28;20045;-62
2023/06/13 07:29:27;;;;;;;4.83;3.50;;;;;;;;;;5067967;28;20074;-61
2023/06/13 07:31:53;;;;;;;8.83;3.80;;;;;;;;;;5068464;28;20045;-61
2023/06/13 07:34:20;;;;;;;5.90;3.37;;;;;;;;;;5068069;28;20057;-61
2023/06/13 07:36:47;;;;;;;8.93;3.87;;;;;;;;;;5067158;28;20542;-61
2023/06/13 07:39:14;;;;;;;9.20;3.27;;;;;;;;;;5068116;28;20418;-61
2023/06/13 07:41:40;;;;;;;7.57;3.30;;;;;;;;;;5071745;28;20478;-62
2023/06/13 07:44:06;;;;;;;8.10;4.27;;;;;;;;;;5071250;28;20498;-61
2023/06/13 07:46:32;;;;;;;5.97;3.37;;;;;;;;;;5069118;28;20067;-61
2023/06/13 07:48:58;;;;;;;14.60;4.07;;;;;;;;;;5067436;28;20490;-61
2023/06/13 07:51:25;;;;;;;5.33;3.83;;;;;;;;;;5070567;28;20119;-61
2023/06/13 07:53:51;;;;;;;11.50;3.67;;;;;;;;;;5071459;28;20075;-61
2023/06/13 07:56:17;;;;;;;6.43;3.80;;;;;;;;;;5071904;28;20075;-61
2023/06/13 07:58:43;;;;;;;7.40;4.03;;;;;;;;;;5071609;28;20647;-61
2023/06/13 08:01:10;;;;;;;8.90;3.90;;;;;;;;;;5071856;28;20051;-61
2023/06/13 08:03:36;;;;;;;8.00;3.85;;;;;;;;;;5071968;28;20045;-60
2023/06/13 08:06:02;;;;;;;6.70;4.30;;;;;;;;;;5071768;28;20094;-61
2023/06/13 08:08:28;;;;;;;7.50;3.97;;;;;;;;;;5070349;28;20044;-61
2023/06/13 08:10:54;;;;;;;8.32;3.60;;;;;;;;;;5067814;28;20043;-61
2023/06/13 08:13:20;;;;;;;9.85;4.13;;;;;;;;;;5069137;28;20040;-60
2023/06/13 08:15:46;;;;;;;7.03;3.83;;;;;;;;;;5069833;28;20499;-61
2023/06/13 08:18:13;;;;;;;7.63;3.90;;;;;;;;;;5069222;28;20095;-61
2023/06/13 08:20:39;;;;;;;7.32;3.72;;;;;;;;;;5070772;28;20068;-61
2023/06/13 08:23:05;;;;;;;6.28;3.67;;;;;;;;;;5070172;28;20047;-61
2023/06/13 08:25:31;;;;;;;7.30;4.50;;;;;;;;;;5071224;28;20048;-61
2023/06/13 08:27:57;;;;;;;7.72;4.07;;;;;;;;;;5071029;28;20121;-61
2023/06/13 08:30:23;;;;;;;5.88;4.03;;;;;;;;;;5069907;28;20052;-61
2023/06/13 08:32:52;;;;;;;10.65;4.40;;;;;;;;;;5069963;28;20076;-61
2023/06/13 08:35:21;;;;;;;9.93;4.20;;;;;;;;;;5069977;28;20052;-61
2023/06/13 08:37:47;;;;;;;9.43;4.95;;;;;;;;;;5085683;28;20044;-60
2023/06/13 08:40:15;;;;;;;4.93;3.45;;;;;;;;;;5069888;28;20137;-61
2023/06/13 08:42:43;;;;;;;8.45;3.63;;;;;;;;;;5068784;28;20051;-61
2023/06/13 08:45:10;;;;;;;10.00;3.42;;;;;;;;;;5063321;28;20569;-61
2023/06/13 08:47:36;;;;;;;7.90;3.60;;;;;;;;;;5069419;28;20443;-61
2023/06/13 08:50:03;;;;;;;19.05;4.55;;;;;;;;;;5052424;28;20064;-61
2023/06/13 08:52:30;;;;;;;11.93;3.88;;;;;;;;;;5064438;28;20045;-61
2023/06/13 08:54:59;;;;;;;4.82;3.33;;;;;;;;;;5070225;28;20045;-61
2023/06/13 08:57:28;;;;;;;7.25;3.40;;;;;;;;;;5069870;28;20051;-61
2023/06/13 08:59:55;;;;;;;5.82;3.45;;;;;;;;;;5069490;28;20502;-61
2023/06/13 09:02:24;;;;;;;5.72;3.53;;;;;;;;;;5069605;28;20041;-61
2023/06/13 09:04:51;;;;;;;6.32;3.25;;;;;;;;;;5069825;28;20068;-61
2023/06/13 09:07:18;;;;;;;5.07;3.00;;;;;;;;;;5069815;28;20055;-61
2023/06/13 09:09:45;;;;;;;6.47;3.63;;;;;;;;;;5069054;28;20101;-61
2023/06/13 09:12:12;;;;;;;8.52;3.40;;;;;;;;;;5085384;28;20126;-61
2023/06/13 09:14:39;;;;;;;7.30;3.92;;;;;;;;;;5069016;28;20055;-61
2023/06/13 09:17:05;;;;;;;9.32;3.40;;;;;;;;;;5069488;28;21053;-61
2023/06/13 09:19:31;;;;;;;6.20;3.40;;;;;;;;;;5068380;28;20557;-61
2023/06/13 09:21:57;;;;;;;5.85;3.00;;;;;;;;;;5056475;28;20056;-61
2023/06/13 09:24:26;;;;;;;7.85;3.55;;;;;;;;;;5069153;28;20049;-61
2023/06/13 09:26:53;;;;;;;4.88;3.05;;;;;;;;;;5068218;28;20037;-61
2023/06/13 09:29:19;;;;;;;9.93;3.30;;;;;;;;;;5069258;28;20055;-61
2023/06/13 09:31:45;;;;;;;6.27;3.00;;;;;;;;;;5031018;28;1079534;-62
2023/06/13 09:34:17;;;;;;;5.32;3.35;;;;;;;;;;5066466;28;20068;-61
2023/06/13 09:36:43;;;;;;;5.15;3.45;;;;;;;;;;5070433;28;20760;-61
2023/06/13 09:39:09;;;;;;;7.43;3.65;;;;;;;;;;5069073;28;20123;-61
2023/06/13 09:41:36;;;;;;;6.95;3.10;;;;;;;;;;5068090;28;20041;-61
2023/06/13 09:44:03;;;;;;;7.18;3.35;;;;;;;;;;5060638;28;20101;-61
2023/06/13 09:46:29;;;;;;;5.47;3.20;;;;;;;;;;5070042;28;20115;-61
2023/06/13 09:48:55;;;;;;;4.22;3.20;;;;;;;;;;5069939;28;20041;-61
2023/06/13 09:51:22;;;;;;;8.63;3.83;;;;;;;;;;5061015;28;20073;-61
2023/06/13 09:53:48;;;;;;;6.07;2.92;;;;;;;;;;5063179;28;20414;-61
2023/06/13 09:56:14;;;;;;;5.15;3.33;;;;;;;;;;5069391;28;20119;-61
2023/06/13 09:58:41;;;;;;;5.93;3.30;;;;;;;;;;5069394;28;20154;-61
2023/06/13 10:01:14;;;;;;;5.75;2.97;;;;;;;;;;5069423;28;20127;-62
2023/06/13 10:03:41;;;;;;;4.72;3.15;;;;;;;;;;5068497;28;20052;-61
2023/06/13 10:06:07;;;;;;;9.02;3.15;;;;;;;;;;5069695;28;20153;-61
2023/06/13 10:08:34;;;;;;;6.28;3.00;;;;;;;;;;5068276;28;20063;-61
2023/06/13 10:11:02;;;;;;;4.95;3.28;;;;;;;;;;5069369;28;20044;-61
2023/06/13 10:13:29;;;;;;;6.82;3.28;;;;;;;;;;5069232;28;20146;-61
2023/06/13 10:15:57;;;;;;;5.32;2.92;;;;;;;;;;5069169;28;20494;-61
2023/06/13 10:18:27;;;;;;;4.97;2.90;;;;;;;;;;5068957;28;20044;-61
2023/06/13 10:20:56;;;;;;;9.00;3.20;;;;;;;;;;5068162;28;20526;-61
2023/06/13 10:23:23;;;;;;;4.97;3.15;;;;;;;;;;5068246;28;20048;-61
2023/06/13 10:25:54;;;;;;;10.68;3.20;;;;;;;;;;5064135;28;20044;-61
2023/06/13 10:28:28;;;;;;;8.35;3.72;;;;;;;;;;5049254;28;20585;-61
2023/06/13 10:31:10;;;;;;;6.20;2.95;;;;;;;;;;5056659;28;20141;-61
2023/06/13 10:33:39;;;;;;;4.80;2.90;;;;;;;;;;5067723;28;20056;-61
2023/06/13 10:36:05;;;;;;;5.68;3.40;;;;;;;;;;5068037;28;20045;-61
2023/06/13 10:38:42;;;;;;;4.75;2.95;;;;;;;;;;5066479;28;20048;-61
2023/06/13 10:41:32;;;;;;;9.45;3.58;;;;;;;;;;5068920;28;20049;-61
2023/06/13 10:44:01;;;;;;;4.07;2.78;;;;;;;;;;5030287;28;20529;-61
2023/06/13 10:46:27;;;;;;;4.72;3.22;;;;;;;;;;5068251;28;20096;-61
2023/06/13 10:48:53;;;;;;;5.38;3.15;;;;;;;;;;5068115;28;20045;-61
2023/06/13 10:51:20;;;;;;;4.85;2.97;;;;;;;;;;5068495;28;20041;-61
2023/06/13 10:53:46;;;;;;;5.90;2.95;;;;;;;;;;5067414;28;20041;-61
2023/06/13 10:56:12;;;;;;;4.22;3.30;;;;;;;;;;5068189;28;20505;-61
2023/06/13 10:58:40;;;;;;;8.43;3.33;;;;;;;;;;5067821;28;20155;-61
2023/06/13 11:01:39;;;;;;;6.90;3.60;;;;;;;;;;5068858;28;20094;-61
2023/06/13 11:04:06;;;;;;;8.07;3.47;;;;;;;;;;5024339;28;20064;-61
2023/06/13 11:06:32;;;;;;;6.40;3.10;;;;;;;;;;5068453;28;20494;-61
2023/06/13 11:09:24;;;;;;;7.35;3.60;;;;;;;;;;5068978;28;20040;-62
2023/06/13 11:11:52;;;;;;;5.03;3.00;;;;;;;;;;5065429;28;20529;-62
2023/06/13 11:14:22;;;;;;;5.13;3.58;;;;;;;;;;5068033;28;20135;-62
2023/06/13 11:16:48;;;;;;;6.25;3.53;;;;;;;;;;5068767;28;20044;-62
2023/06/13 11:19:19;;;;;;;4.85;3.63;;;;;;;;;;5068402;28;20079;-62
2023/06/13 11:22:03;;;;;;;6.57;3.40;;;;;;;;;;5068380;28;20056;-62
2023/06/13 11:24:29;;;;;;;3.80;3.40;;;;;;;;;;5068457;28;20056;-62
2023/06/13 11:26:56;;;;;;;5.63;3.28;;;;;;;;;;5068337;28;20048;-62
2023/06/13 11:29:22;;;;;;;8.27;3.40;;;;;;;;;;5068680;28;20055;-61
2023/06/13 11:31:51;;;;;;;11.48;4.18;;;;;;;;;;5068503;28;20044;-62
2023/06/13 11:34:18;;;;;;;6.07;3.65;;;;;;;;;;5067937;28;20044;-62
2023/06/13 11:36:45;;;;;;;7.90;3.47;;;;;;;;;;5068511;28;20425;-62
2023/06/13 11:39:20;;;;;;;6.97;3.20;;;;;;;;;;5068476;28;20051;-62
2023/06/13 11:41:47;;;;;;;4.97;3.55;;;;;;;;;;5068122;28;20036;-61
2023/06/13 11:44:13;;;;;;;7.35;3.10;;;;;;;;;;5066068;28;20624;-61
2023/06/13 11:46:43;;;;;;;4.60;3.42;;;;;;;;;;5067842;28;20446;-62
2023/06/13 11:49:15;;;;;;;3.58;2.75;;;;;;;;;;5068135;28;20040;-62
2023/06/13 11:51:42;;;;;;;5.25;3.47;;;;;;;;;;5067944;28;20473;-62
2023/06/13 11:54:09;;;;;;;7.95;3.30;;;;;;;;;;5068074;28;20495;-61
2023/06/13 11:56:40;;;;;;;7.63;3.67;;;;;;;;;;5053074;28;20077;-61
2023/06/13 11:59:16;;;;;;;3.90;2.73;;;;;;;;;;5047351;28;20507;-62
2023/06/13 12:01:42;;;;;;;5.18;3.17;;;;;;;;;;5030026;28;20053;-61
2023/06/13 12:04:10;;;;;;;6.95;3.20;;;;;;;;;;5047748;28;20076;-62
2023/06/13 12:06:38;;;;;;;5.22;3.10;;;;;;;;;;5047716;28;20092;-62
2023/06/13 12:09:06;;;;;;;5.10;3.25;;;;;;;;;;5047419;28;20056;-62
2023/06/13 12:11:32;;;;;;;5.32;3.15;;;;;;;;;;5047935;28;20087;-62
2023/06/13 12:14:02;;;;;;;5.45;3.25;;;;;;;;;;5048057;28;20148;-61
2023/06/13 12:16:35;;;;;;;7.22;3.33;;;;;;;;;;5047537;28;20037;-62
2023/06/13 12:19:01;;;;;;;4.32;3.05;;;;;;;;;;5030317;28;20057;-62
2023/06/13 12:21:31;;;;;;;5.13;3.30;;;;;;;;;;5046975;28;20056;-62
2023/06/13 12:23:58;;;;;;;4.28;3.47;;;;;;;;;;5047938;28;20048;-62
2023/06/13 12:26:30;;;;;;;4.32;3.15;;;;;;;;;;5049238;28;20053;-62
2023/06/13 12:28:59;;;;;;;7.53;3.00;;;;;;;;;;5051332;28;20419;-62
2023/06/13 12:31:33;;;;;;;5.63;2.67;;;;;;;;;;5051108;28;20534;-62
2023/06/13 12:34:26;;;;;;;4.88;3.13;;;;;;;;;;5051491;28;20553;-62
2023/06/13 12:36:54;;;;;;;6.03;2.95;;;;;;;;;;5051057;28;20080;-62
2023/06/13 12:39:21;;;;;;;5.85;3.35;;;;;;;;;;5051216;28;20557;-62
2023/06/13 12:41:51;;;;;;;6.00;3.25;;;;;;;;;;5050691;28;20072;-62
2023/06/13 12:44:18;;;;;;;4.70;2.95;;;;;;;;;;5050687;28;20202;-62
2023/06/13 12:46:45;;;;;;;4.50;2.75;;;;;;;;;;5050774;28;20041;-62
2023/06/13 12:49:12;;;;;;;5.90;3.50;;;;;;;;;;5051289;28;20044;-62
2023/06/13 12:51:43;;;;;;;5.65;3.13;;;;;;;;;;5051291;28;20033;-62
2023/06/13 12:54:15;;;;;;;7.22;3.13;;;;;;;;;;5051286;28;20041;-61
2023/06/13 12:56:59;;;;;;;6.10;3.08;;;;;;;;;;5050218;28;20061;-61
2023/06/13 12:59:38;;;;;;;6.07;3.33;;;;;;;;;;5050775;28;20155;-62
2023/06/13 13:02:06;;;;;;;8.00;3.33;;;;;;;;;;5050957;28;20483;-61
2023/06/13 13:04:33;;;;;;;3.53;2.95;;;;;;;;;;5050740;28;20045;-62
2023/06/13 13:06:59;;;;;;;6.45;3.13;;;;;;;;;;5050646;28;20052;-62
2023/06/13 13:09:26;;;;;;;6.93;2.92;;;;;;;;;;5050235;28;20146;-62
2023/06/13 13:11:55;;;;;;;3.50;2.95;;;;;;;;;;5050707;28;20045;-62
2023/06/13 13:14:22;;;;;;;5.75;3.45;;;;;;;;;;5050250;28;20075;-62
2023/06/13 13:16:48;;;;;;;4.13;3.30;;;;;;;;;;5050462;28;20507;-62
2023/06/13 13:19:14;;;;;;;4.18;3.38;;;;;;;;;;5050364;28;20513;-62
2023/06/13 13:21:40;;;;;;;5.05;3.22;;;;;;;;;;5049820;28;20048;-62
2023/06/13 13:24:06;;;;;;;4.97;2.95;;;;;;;;;;5050301;28;20049;-62
2023/06/13 13:26:32;;;;;;;5.40;3.00;;;;;;;;;;5068192;28;20041;-62
2023/06/13 13:28:58;;;;;;;6.30;3.17;;;;;;;;;;5068515;28;20125;-62
2023/06/13 13:31:24;;;;;;;7.38;2.90;;;;;;;;;;5069729;28;20415;-62
2023/06/13 13:33:50;;;;;;;4.57;3.17;;;;;;;;;;5045487;28;20052;-62
2023/06/13 13:36:16;;;;;;;3.85;2.80;;;;;;;;;;5070399;28;20044;-62
2023/06/13 13:38:42;;;;;;;5.57;3.20;;;;;;;;;;5057878;28;20098;-62
2023/06/13 13:41:08;;;;;;;5.22;3.45;;;;;;;;;;5063485;28;20067;-62
2023/06/13 13:43:34;;;;;;;5.47;2.88;;;;;;;;;;5070067;28;20049;-62
2023/06/13 13:46:00;;;;;;;5.18;3.10;;;;;;;;;;5065359;28;20518;-63
2023/06/13 13:48:26;;;;;;;5.30;2.95;;;;;;;;;;5070666;28;20432;-62
2023/06/13 13:50:53;;;;;;;9.00;3.40;;;;;;;;;;5068810;28;20048;-62
2023/06/13 13:53:19;;;;;;;5.85;3.30;;;;;;;;;;5068915;28;20043;-61
2023/06/13 13:55:45;;;;;;;4.10;3.20;;;;;;;;;;5069481;28;20056;-62
2023/06/13 13:58:12;;;;;;;5.28;3.08;;;;;;;;;;5069236;28;20087;-61
2023/06/13 14:00:38;;;;;;;3.90;2.95;;;;;;;;;;5069589;28;20561;-62
2023/06/13 14:03:04;;;;;;;4.13;2.75;;;;;;;;;;5070768;28;20041;-62
2023/06/13 14:05:30;;;;;;;7.55;3.50;;;;;;;;;;5068753;28;20045;-62
2023/06/13 14:07:56;;;;;;;5.63;2.90;;;;;;;;;;5068514;28;20048;-62
2023/06/13 14:10:22;;;;;;;6.28;3.00;;;;;;;;;;5070540;28;20425;-62
2023/06/13 14:12:51;;;;;;;3.65;2.88;;;;;;;;;;5069389;28;20568;-62
2023/06/13 14:15:17;;;;;;;3.60;2.70;;;;;;;;;;5068261;28;20036;-62
2023/06/13 14:17:44;;;;;;;4.10;3.08;;;;;;;;;;5070203;28;20102;-62
2023/06/13 14:20:12;;;;;;;4.47;3.17;;;;;;;;;;5070274;28;20044;-62
2023/06/13 14:22:38;;;;;;;4.93;3.50;;;;;;;;;;5069955;28;20123;-62
2023/06/13 14:25:05;;;;;;;5.60;3.10;;;;;;;;;;5070242;28;20837;-62
2023/06/13 14:27:31;;;;;;;5.68;2.90;;;;;;;;;;5070222;28;20127;-62
2023/06/13 14:29:57;;;;;;;6.30;3.40;;;;;;;;;;5070026;28;20048;-62
2023/06/13 14:32:23;;;;;;;5.20;3.17;;;;;;;;;;5050634;28;20410;-62
2023/06/13 14:34:49;;;;;;;4.57;2.88;;;;;;;;;;5069398;28;20131;-62
2023/06/13 14:37:15;;;;;;;5.80;2.72;;;;;;;;;;5069575;28;20048;-62
2023/06/13 14:39:41;;;;;;;5.18;3.10;;;;;;;;;;5069925;28;20044;-62
2023/06/13 14:42:07;;;;;;;6.63;2.75;;;;;;;;;;5069614;28;20070;-62